Time;durP1;ratioP1;P1;durP2;ratioP2;P2;SDS_P1;SDS_P2;PMS_P1;PMS_P2;Temp;Humidity;BMP_temperature;BMP_pressure;BME280_temperature;BME280_humidity;BME280_pressure;Samples;Min_cycle;Max_cycle;Signal;HPM_P1;HPM_P2
2023/04/14 00:00:25;;;;;;;8.20;4.63;;;;;;;11.03;nan;99114.53;5066844;28;20107;-68
2023/04/14 00:02:51;;;;;;;7.70;4.35;;;;;;;11.08;nan;99129.56;5060267;28;20596;-69
2023/04/14 00:05:17;;;;;;;8.00;4.60;;;;;;;11.07;nan;99138.53;5042064;28;20031;-69
2023/04/14 00:07:42;;;;;;;8.98;4.82;;;;;;;10.99;nan;99123.22;5053626;28;20547;-69
2023/04/14 00:10:08;;;;;;;7.28;4.50;;;;;;;11.05;nan;99122.97;5060073;28;20036;-67
2023/04/14 00:12:33;;;;;;;13.93;4.97;;;;;;;10.97;nan;99122.72;5052279;28;20024;-67
2023/04/14 00:14:59;;;;;;;10.07;4.45;;;;;;;10.98;nan;99122.44;5061108;28;20072;-67
2023/04/14 00:17:24;;;;;;;8.57;4.18;;;;;;;10.93;nan;99113.72;5063515;28;20066;-67
2023/04/14 00:19:50;;;;;;;6.60;4.00;;;;;;;10.93;nan;99111.88;5067298;28;20144;-67
2023/04/14 00:22:15;;;;;;;8.35;4.00;;;;;;;10.91;nan;99107.91;5066928;28;20151;-65
2023/04/14 00:24:42;;;;;;;6.63;4.18;;;;;;;10.89;nan;99107.38;5065564;28;20207;-70
2023/04/14 00:27:10;;;;;;;10.70;4.65;;;;;;;10.85;nan;99113.19;5047870;28;20646;-69
2023/04/14 00:29:39;;;;;;;10.63;4.45;;;;;;;10.91;nan;99129.00;5061009;28;20512;-69
2023/04/14 00:32:05;;;;;;;10.20;4.00;;;;;;;10.81;nan;99098.16;5040367;28;20554;-68
2023/04/14 00:34:31;;;;;;;8.00;4.10;;;;;;;10.79;nan;99079.97;5058627;28;20087;-69
2023/04/14 00:36:56;;;;;;;9.75;4.13;;;;;;;10.92;nan;99093.69;5058507;28;20024;-69
2023/04/14 00:39:22;;;;;;;9.50;4.13;;;;;;;10.83;nan;99080.25;5065660;28;20072;-69
2023/04/14 00:41:47;;;;;;;7.15;3.90;;;;;;;10.86;nan;99079.72;5064200;28;20111;-69
2023/04/14 00:44:13;;;;;;;7.20;3.65;;;;;;;10.88;nan;99090.81;5051974;28;20098;-69
2023/04/14 00:46:40;;;;;;;8.93;4.07;;;;;;;10.80;nan;99084.19;5048525;28;20047;-68
2023/04/14 00:49:06;;;;;;;5.70;3.70;;;;;;;10.85;nan;99089.47;5060339;28;20272;-69
2023/04/14 00:51:32;;;;;;;6.38;3.78;;;;;;;10.84;nan;99087.88;5060816;28;20406;-69
2023/04/14 00:54:01;;;;;;;5.93;3.90;;;;;;;10.76;nan;99077.84;5063496;28;20135;-69
2023/04/14 00:56:28;;;;;;;7.83;3.87;;;;;;;10.73;nan;99069.69;5040031;28;20068;-68
2023/04/14 00:58:54;;;;;;;12.40;4.00;;;;;;;10.70;nan;99057.81;5052049;28;20017;-69
2023/04/14 01:01:20;;;;;;;7.85;3.40;;;;;;;10.62;nan;99067.00;5041707;28;20203;-69
2023/04/14 01:03:46;;;;;;;8.00;3.72;;;;;;;10.66;nan;99062.03;5026741;28;20115;-70
2023/04/14 01:06:12;;;;;;;5.93;3.72;;;;;;;10.75;nan;99073.66;5065318;28;20060;-69
2023/04/14 01:08:37;;;;;;;6.78;3.50;;;;;;;10.60;nan;99050.66;5063276;28;20032;-69
2023/04/14 01:11:11;;;;;;;5.97;3.28;;;;;;;10.73;nan;99065.22;5064295;28;20020;-69
2023/04/14 01:13:42;;;;;;;6.05;3.60;;;;;;;10.73;nan;99064.44;5064353;28;20095;-70
2023/04/14 01:16:20;;;;;;;5.47;3.35;;;;;;;10.66;nan;99063.88;5069112;28;20024;-70
2023/04/14 01:19:10;;;;;;;4.82;3.17;;;;;;;10.73;nan;99077.59;5073188;28;20028;-70
2023/04/14 01:21:41;;;;;;;6.28;3.53;;;;;;;10.66;nan;99069.94;5070329;28;20707;-69
2023/04/14 01:24:15;;;;;;;6.65;3.47;;;;;;;10.70;nan;99070.19;5048716;28;20033;-69
2023/04/14 01:26:43;;;;;;;7.50;3.28;;;;;;;10.62;nan;99066.22;5059903;28;20507;-70
2023/04/14 01:29:48;;;;;;;6.72;3.22;;;;;;;10.67;nan;99075.97;5042789;28;20025;-69
2023/04/14 01:32:20;;;;;;;6.40;3.25;;;;;;;10.64;nan;99056.22;5063528;28;20021;-69
2023/04/14 01:34:56;;;;;;;6.80;3.22;;;;;;;10.60;nan;99040.16;5063695;28;20052;-69
2023/04/14 01:37:39;;;;;;;5.82;3.40;;;;;;;10.59;nan;99035.94;5064143;28;20726;-70
2023/04/14 01:40:11;;;;;;;4.78;3.20;;;;;;;10.54;nan;99024.63;5064206;28;20503;-69
2023/04/14 01:42:41;;;;;;;5.10;3.08;;;;;;;10.60;nan;99034.09;5071458;28;20033;-70
2023/04/14 01:45:17;;;;;;;5.65;3.20;;;;;;;10.61;nan;99025.16;5071639;28;20073;-71
2023/04/14 01:47:44;;;;;;;5.03;3.38;;;;;;;10.51;nan;99014.56;5066481;28;20071;-69
2023/04/14 01:50:11;;;;;;;5.22;3.40;;;;;;;10.66;nan;99037.56;5066231;28;20119;-69
2023/04/14 01:52:38;;;;;;;6.88;3.38;;;;;;;10.62;nan;99032.00;5064687;28;20044;-69
2023/04/14 01:55:05;;;;;;;7.57;3.30;;;;;;;10.64;nan;99033.31;5061746;28;20070;-69
2023/04/14 01:57:35;;;;;;;5.32;3.30;;;;;;;10.63;nan;99023.84;5060435;28;20123;-70
2023/04/14 02:00:03;;;;;;;5.82;3.22;;;;;;;10.69;nan;99027.28;5063376;28;20123;-70
2023/04/14 02:02:30;;;;;;;6.10;3.13;;;;;;;10.58;nan;99013.31;5058569;28;20025;-69
2023/04/14 02:04:56;;;;;;;8.73;3.25;;;;;;;10.62;nan;99019.63;5063446;28;20052;-69
2023/04/14 02:07:23;;;;;;;6.93;3.42;;;;;;;10.71;nan;99042.81;5071412;28;20146;-69
2023/04/14 02:09:52;;;;;;;6.78;3.35;;;;;;;10.68;nan;99043.31;5067130;28;20440;-71
2023/04/14 02:12:19;;;;;;;5.28;2.72;;;;;;;10.64;nan;99045.69;5047862;28;20031;-71
2023/04/14 02:14:46;;;;;;;6.50;3.20;;;;;;;10.55;nan;99036.72;5065921;28;20027;-69
2023/04/14 02:17:13;;;;;;;5.53;3.20;;;;;;;10.59;nan;99033.31;5067902;28;20129;-69
2023/04/14 02:19:41;;;;;;;5.15;3.10;;;;;;;10.61;nan;99040.97;5061137;28;20036;-69
2023/04/14 02:22:07;;;;;;;3.78;2.70;;;;;;;10.50;nan;99028.81;5058382;28;20028;-69
2023/04/14 02:24:32;;;;;;;5.95;3.08;;;;;;;10.53;nan;99026.44;5061554;28;20133;-69
2023/04/14 02:27:09;;;;;;;5.47;3.05;;;;;;;10.52;nan;99024.84;5063756;28;20102;-69
2023/04/14 02:29:37;;;;;;;4.60;3.10;;;;;;;10.41;nan;98996.91;5065902;28;20025;-69
2023/04/14 02:32:06;;;;;;;5.13;2.88;;;;;;;10.54;nan;99017.50;5064039;28;20422;-69
2023/04/14 02:34:37;;;;;;;5.45;2.60;;;;;;;10.51;nan;99012.75;5065657;28;20032;-69
2023/04/14 02:37:15;;;;;;;4.55;2.90;;;;;;;10.43;nan;98987.72;5065720;28;20046;-71
2023/04/14 02:39:44;;;;;;;7.22;3.35;;;;;;;10.46;nan;98981.13;5066137;28;20376;-69
2023/04/14 02:42:24;;;;;;;5.38;2.80;;;;;;;10.51;nan;98985.63;5037530;28;20035;-69
2023/04/14 02:45:02;;;;;;;8.25;3.00;;;;;;;10.23;nan;98935.00;5049290;28;20407;-69
2023/04/14 02:47:33;;;;;;;5.75;3.00;;;;;;;10.50;nan;98981.44;5047237;28;20035;-69
2023/04/14 02:50:01;;;;;;;5.47;3.08;;;;;;;10.47;nan;98972.22;5057156;28;20023;-69
2023/04/14 02:52:30;;;;;;;4.78;2.78;;;;;;;10.40;nan;98967.19;5061855;28;20021;-69
2023/04/14 02:54:57;;;;;;;5.83;2.70;;;;;;;10.30;nan;98959.25;5061758;28;20020;-69
2023/04/14 02:57:24;;;;;;;5.35;2.63;;;;;;;10.38;nan;98958.75;5066793;28;20326;-69
2023/04/14 02:59:51;;;;;;;5.00;2.92;;;;;;;10.38;nan;98958.75;5064496;28;20035;-69
2023/04/14 03:02:17;;;;;;;4.35;2.90;;;;;;;10.43;nan;98973.78;5067699;28;20386;-69
2023/04/14 03:04:43;;;;;;;5.80;2.85;;;;;;;10.32;nan;98954.53;5051111;28;20078;-70
2023/04/14 03:07:11;;;;;;;6.70;3.08;;;;;;;10.40;nan;98971.66;5067775;28;20547;-69
2023/04/14 03:09:39;;;;;;;4.85;2.85;;;;;;;10.23;nan;98953.44;5063922;28;20740;-70
2023/04/14 03:12:06;;;;;;;6.63;2.53;;;;;;;10.34;nan;98972.69;5067175;28;20036;-69
2023/04/14 03:14:33;;;;;;;4.38;2.35;;;;;;;10.39;nan;98978.78;5044052;28;20020;-69
2023/04/14 03:16:59;;;;;;;4.95;2.83;;;;;;;10.38;nan;98979.81;5058216;28;20055;-70
2023/04/14 03:19:26;;;;;;;5.63;2.50;;;;;;;10.39;nan;98986.66;5040936;28;20028;-69
2023/04/14 03:21:54;;;;;;;7.60;2.72;;;;;;;10.38;nan;98982.44;5063956;28;20077;-70
2023/04/14 03:24:26;;;;;;;7.55;2.80;;;;;;;10.43;nan;98981.66;5050141;28;20396;-69
2023/04/14 03:26:56;;;;;;;3.95;2.45;;;;;;;10.43;nan;98981.66;5047135;28;20025;-70
2023/04/14 03:29:25;;;;;;;3.97;2.60;;;;;;;10.43;nan;98981.66;5044019;28;20025;-69
2023/04/14 03:31:55;;;;;;;11.82;4.18;;;;;;;10.36;nan;98971.38;5062324;28;20031;-69
2023/04/14 03:34:21;;;;;;;;;;;;;;;10.47;nan;98969.56;5066311;28;20071;-70
2023/04/14 03:36:49;;;;;;;4.72;2.67;;;;;;;10.47;nan;98963.53;5063276;28;20403;-69
2023/04/14 03:39:17;;;;;;;4.78;2.70;;;;;;;10.49;nan;98962.22;5060064;28;20440;-69
2023/04/14 03:41:47;;;;;;;4.32;2.72;;;;;;;10.50;nan;98963.78;5057973;28;20017;-70
2023/04/14 03:44:15;;;;;;;6.82;2.85;;;;;;;10.45;nan;98952.47;5047494;28;20035;-69
2023/04/14 03:46:40;;;;;;;6.35;2.70;;;;;;;10.55;nan;98963.00;5066746;28;20394;-69
2023/04/14 03:49:10;;;;;;;5.40;2.53;;;;;;;10.64;nan;98969.34;5049786;28;20040;-69
2023/04/14 03:51:38;;;;;;;;;;;;;;;10.64;nan;98964.09;5048522;28;20054;-69
2023/04/14 03:54:05;;;;;;;6.25;2.40;;;;;;;10.56;nan;98948.78;5060423;28;19942;-69
2023/04/14 03:56:36;;;;;;;5.55;2.55;;;;;;;10.68;nan;98964.34;5063512;28;20048;-69
2023/04/14 03:59:03;;;;;;;4.97;2.70;;;;;;;10.71;nan;98962.00;5045468;28;20039;-69
2023/04/14 04:01:30;;;;;;;7.05;2.75;;;;;;;10.73;nan;98959.13;5048214;28;20024;-69
2023/04/14 04:03:58;;;;;;;5.55;2.55;;;;;;;10.67;nan;98941.72;5037997;28;20151;-69
2023/04/14 04:06:24;;;;;;;7.45;2.80;;;;;;;10.68;nan;98933.56;5060647;28;20024;-69
2023/04/14 04:08:52;;;;;;;6.90;2.90;;;;;;;10.71;nan;98948.84;5041465;28;20182;-69
2023/04/14 04:11:19;;;;;;;4.57;2.58;;;;;;;10.40;nan;98911.91;5047634;28;20529;-69
2023/04/14 04:13:48;;;;;;;9.98;2.90;;;;;;;10.68;nan;98953.81;5049583;28;20020;-69
2023/04/14 04:16:14;;;;;;;4.68;2.70;;;;;;;10.77;nan;98973.31;5038954;28;20498;-69
2023/04/14 04:18:45;;;;;;;4.38;2.70;;;;;;;10.77;nan;98971.47;5067687;28;20098;-69
2023/04/14 04:21:16;;;;;;;6.85;3.17;;;;;;;10.79;nan;98979.91;5065632;28;20491;-70
2023/04/14 04:23:45;;;;;;;5.85;2.50;;;;;;;10.78;nan;98983.59;5047123;28;20048;-69
2023/04/14 04:26:11;;;;;;;3.35;2.50;;;;;;;10.78;nan;98983.59;5050941;28;20489;-70
2023/04/14 04:28:37;;;;;;;3.67;2.42;;;;;;;10.83;nan;98982.81;5063924;28;20064;-69
2023/04/14 04:31:05;;;;;;;5.72;2.47;;;;;;;10.84;nan;98982.53;5063853;28;20452;-69
2023/04/14 04:33:31;;;;;;;7.70;2.70;;;;;;;10.72;nan;98965.41;5063595;28;20036;-69
2023/04/14 04:35:57;;;;;;;5.30;2.67;;;;;;;10.77;nan;98975.94;5059463;28;20162;-69
2023/04/14 04:38:23;;;;;;;7.15;2.95;;;;;;;10.81;nan;98975.16;5063434;28;20575;-69
2023/04/14 04:40:48;;;;;;;5.75;2.78;;;;;;;10.84;nan;98974.63;5061092;28;20401;-70
2023/04/14 04:43:17;;;;;;;4.05;2.58;;;;;;;10.84;nan;98977.28;5058304;28;20020;-69
2023/04/14 04:45:50;;;;;;;7.20;2.85;;;;;;;10.78;nan;98965.16;5050546;28;20116;-69
2023/04/14 04:48:16;;;;;;;6.38;2.72;;;;;;;10.75;nan;98960.44;5052132;28;20032;-70
2023/04/14 04:50:41;;;;;;;5.68;3.28;;;;;;;10.80;nan;98965.69;5071191;28;20077;-69
2023/04/14 04:53:06;;;;;;;7.10;3.05;;;;;;;10.75;nan;98943.81;5066314;28;20254;-69
2023/04/14 04:55:32;;;;;;;4.70;2.90;;;;;;;10.78;nan;98945.94;5068176;28;20056;-72
2023/04/14 04:57:57;;;;;;;7.68;3.63;;;;;;;10.85;nan;98954.38;5066990;28;20029;-72
2023/04/14 05:00:24;;;;;;;5.35;2.95;;;;;;;10.89;nan;98957.28;5050520;28;20047;-72
2023/04/14 05:02:50;;;;;;;6.90;3.00;;;;;;;10.76;nan;98932.25;5059826;28;20150;-71
2023/04/14 05:05:15;;;;;;;7.03;3.20;;;;;;;10.85;nan;98943.84;5062666;28;20140;-71
2023/04/14 05:07:41;;;;;;;6.32;3.30;;;;;;;10.89;nan;98944.91;5063327;28;20158;-71
2023/04/14 05:10:07;;;;;;;5.50;3.35;;;;;;;10.92;nan;98940.94;5061602;28;20024;-71
2023/04/14 05:12:32;;;;;;;9.52;4.05;;;;;;;10.88;nan;98934.63;5052483;28;20040;-71
2023/04/14 05:14:58;;;;;;;6.45;3.22;;;;;;;10.98;nan;98943.31;5069791;28;20070;-71
2023/04/14 05:17:23;;;;;;;7.40;3.47;;;;;;;10.99;nan;98936.22;5067388;28;20538;-72
2023/04/14 05:19:49;;;;;;;12.60;4.18;;;;;;;11.05;nan;98935.94;5067917;28;20047;-71
2023/04/14 05:22:14;;;;;;;10.07;4.03;;;;;;;11.10;nan;98940.44;5049525;28;20159;-71
2023/04/14 05:24:40;;;;;;;17.42;5.10;;;;;;;11.08;nan;98924.09;5059709;28;20044;-70
2023/04/14 05:27:05;;;;;;;6.97;3.75;;;;;;;11.04;nan;98921.22;5063683;28;20133;-71
2023/04/14 05:29:31;;;;;;;6.80;3.53;;;;;;;11.12;nan;98924.38;5040128;28;20052;-71
2023/04/14 05:31:56;;;;;;;6.45;3.70;;;;;;;11.17;nan;98927.78;5049329;28;20050;-72
2023/04/14 05:34:22;;;;;;;5.72;3.47;;;;;;;11.17;nan;98916.47;5046001;28;20020;-74
2023/04/14 05:36:47;;;;;;;6.55;3.67;;;;;;;11.22;nan;98927.00;5068494;28;20387;-74
2023/04/14 05:39:12;;;;;;;8.63;4.25;;;;;;;11.23;nan;98925.94;5068041;28;20099;-70
2023/04/14 05:41:38;;;;;;;6.57;3.50;;;;;;;11.21;nan;98928.84;5066557;28;20490;-73
2023/04/14 05:44:03;;;;;;;5.10;3.30;;;;;;;11.28;nan;98934.63;5068049;28;20124;-72
2023/04/14 05:46:29;;;;;;;10.20;3.58;;;;;;;11.32;nan;98924.34;5048422;28;20040;-71
2023/04/14 05:48:55;;;;;;;8.57;3.55;;;;;;;11.34;nan;98924.06;5053462;28;20012;-72
2023/04/14 05:51:21;;;;;;;7.85;4.10;;;;;;;11.30;nan;98910.66;5068440;28;20032;-72
2023/04/14 05:53:46;;;;;;;7.75;3.88;;;;;;;11.24;nan;98911.72;5045371;28;20082;-73
2023/04/14 05:56:11;;;;;;;7.82;4.10;;;;;;;11.39;nan;98929.34;5050997;28;20048;-71
2023/04/14 05:58:37;;;;;;;6.25;3.97;;;;;;;11.46;nan;98919.31;5031790;28;20024;-72
2023/04/14 06:01:02;;;;;;;7.07;3.70;;;;;;;11.46;nan;98914.03;5044695;28;20037;-72
2023/04/14 06:03:29;;;;;;;5.88;4.18;;;;;;;11.53;nan;98916.41;5060933;28;20032;-69
2023/04/14 06:05:54;;;;;;;6.72;3.95;;;;;;;11.55;nan;98919.56;5064037;28;20029;-68
2023/04/14 06:08:20;;;;;;;7.45;4.47;;;;;;;11.56;nan;98914.00;5066275;28;20078;-69
2023/04/14 06:10:45;;;;;;;8.00;3.80;;;;;;;11.61;nan;98931.66;5063875;28;20056;-68
2023/04/14 06:13:11;;;;;;;8.15;4.10;;;;;;;11.56;nan;98921.91;5063951;28;20461;-69
2023/04/14 06:15:36;;;;;;;9.38;4.38;;;;;;;11.58;nan;98919.81;5062528;28;20094;-68
2023/04/14 06:18:02;;;;;;;9.23;4.15;;;;;;;11.55;nan;98915.06;5063497;28;20032;-69
2023/04/14 06:20:28;;;;;;;8.57;4.20;;;;;;;11.59;nan;98929.31;5063920;28;20077;-68
2023/04/14 06:22:53;;;;;;;9.60;4.07;;;;;;;11.62;nan;98931.41;5058828;28;20089;-68
2023/04/14 06:25:19;;;;;;;10.45;4.13;;;;;;;11.69;nan;98947.72;5049042;28;20028;-69
2023/04/14 06:27:44;;;;;;;9.48;4.70;;;;;;;11.60;nan;98925.59;5069868;28;20059;-68
2023/04/14 06:30:10;;;;;;;10.07;4.30;;;;;;;11.66;nan;98921.09;5063142;28;20032;-68
2023/04/14 06:32:35;;;;;;;8.68;3.95;;;;;;;11.71;nan;98927.16;5044770;28;20109;-69
2023/04/14 06:35:03;;;;;;;9.60;3.83;;;;;;;;;;5061757;28;20028;-68
2023/04/14 06:37:28;;;;;;;9.32;4.40;;;;;;;;;;5043355;28;20037;-68
2023/04/14 06:39:54;;;;;;;7.60;4.53;;;;;;;;;;5049270;28;20463;-69
2023/04/14 06:42:19;;;;;;;6.90;4.32;;;;;;;;;;5064964;28;20039;-69
2023/04/14 06:44:45;;;;;;;8.48;4.00;;;;;;;;;;5044192;28;20028;-68
2023/04/14 06:47:10;;;;;;;7.63;4.75;;;;;;;;;;5063531;28;20074;-67
2023/04/14 06:49:35;;;;;;;6.10;4.22;;;;;;;;;;5038219;28;20082;-71
2023/04/14 06:52:01;;;;;;;7.40;3.97;;;;;;;;;;5066371;28;20078;-70
2023/04/14 06:54:26;;;;;;;8.25;4.35;;;;;;;;;;5067107;28;20021;-71
2023/04/14 06:56:52;;;;;;;10.75;5.15;;;;;;;;;;5069916;28;20048;-71
2023/04/14 06:59:19;;;;;;;13.52;4.63;;;;;;;;;;5065809;28;20032;-68
2023/04/14 07:01:45;;;;;;;10.77;4.57;;;;;;;;;;5067617;28;20031;-69
2023/04/14 07:04:12;;;;;;;7.40;4.25;;;;;;;;;;5069386;28;20031;-69
2023/04/14 07:06:38;;;;;;;11.15;4.70;;;;;;;;;;5062850;28;20082;-69
2023/04/14 07:09:03;;;;;;;11.33;4.87;;;;;;;;;;5051602;28;20473;-69
2023/04/14 07:11:29;;;;;;;8.30;4.70;;;;;;;;;;5067243;28;20055;-67
2023/04/14 07:13:54;;;;;;;7.65;4.22;;;;;;;;;;5062599;28;20361;-68
2023/04/14 07:16:19;;;;;;;7.67;4.70;;;;;;;;;;5039346;28;20020;-70
2023/04/14 07:18:44;;;;;;;13.98;4.88;;;;;;;;;;5046166;28;20096;-70
2023/04/14 07:21:10;;;;;;;7.20;4.57;;;;;;;;;;5062065;28;20036;-69
2023/04/14 07:23:35;;;;;;;10.87;4.17;;;;;;;;;;5046913;28;20043;-70
2023/04/14 07:26:00;;;;;;;10.60;4.50;;;;;;;;;;5052722;28;20494;-67
2023/04/14 07:28:27;;;;;;;8.20;4.40;;;;;;;;;;5062887;28;20511;-67
2023/04/14 07:30:52;;;;;;;14.88;7.68;;;;;;;;;;5051088;28;20020;-68
2023/04/14 07:33:18;;;;;;;12.82;6.50;;;;;;;;;;5065984;28;20149;-68
2023/04/14 07:35:44;;;;;;;10.52;5.40;;;;;;;;;;5053123;28;20086;-68
2023/04/14 07:38:10;;;;;;;10.50;5.65;;;;;;;;;;5061670;28;20386;-68
2023/04/14 07:40:35;;;;;;;12.82;5.80;;;;;;;;;;5046521;28;20056;-68
2023/04/14 07:43:00;;;;;;;11.50;5.60;;;;;;;;;;5059323;28;20038;-68
2023/04/14 07:45:26;;;;;;;12.60;6.80;;;;;;;;;;5059445;28;20402;-68
2023/04/14 07:47:51;;;;;;;13.70;4.80;;;;;;;;;;5049832;28;20052;-70
2023/04/14 07:50:17;;;;;;;9.27;4.90;;;;;;;;;;5044020;28;20029;-70
2023/04/14 07:52:42;;;;;;;8.65;4.70;;;;;;;;;;5046909;28;20041;-70
2023/04/14 07:55:07;;;;;;;9.83;4.67;;;;;;;;;;5067255;28;20484;-67
2023/04/14 07:57:33;;;;;;;8.77;5.37;;;;;;;;;;5070173;28;20500;-68
2023/04/14 07:59:58;;;;;;;11.55;4.97;;;;;;;;;;5062781;28;20033;-68
2023/04/14 08:02:23;;;;;;;9.40;4.90;;;;;;;;;;5062934;28;20034;-68
2023/04/14 08:04:49;;;;;;;9.40;4.73;;;;;;;;;;5044422;28;20883;-68
2023/04/14 08:07:14;;;;;;;14.57;6.27;;;;;;;;;;5064895;28;20284;-68
2023/04/14 08:09:40;;;;;;;9.43;5.13;;;;;;;;;;5063715;28;20067;-69
2023/04/14 08:12:05;;;;;;;12.70;5.07;;;;;;;;;;5066009;28;20052;-68
2023/04/14 08:14:30;;;;;;;11.03;5.93;;;;;;;;;;5048432;28;20028;-68
2023/04/14 08:16:55;;;;;;;9.45;5.65;;;;;;;;;;5069162;28;20273;-67
2023/04/14 08:19:21;;;;;;;17.03;7.57;;;;;;;;;;5067755;28;20023;-69
2023/04/14 08:21:46;;;;;;;18.80;8.20;;;;;;;;;;5068630;28;20525;-69
2023/04/14 08:24:11;;;;;;;14.47;8.80;;;;;;;11.93;nan;99092.25;5066481;28;20281;-68
2023/04/14 08:26:37;;;;;;;13.60;9.20;;;;;;;;;;5062839;28;20051;-69
2023/04/14 08:29:02;;;;;;;40.28;16.35;;;;;;;12.10;nan;99098.03;5060960;28;20120;-68
2023/04/14 08:31:28;;;;;;;16.70;8.15;;;;;;;12.09;nan;99099.09;5063845;28;20031;-68
2023/04/14 08:33:53;;;;;;;10.77;6.95;;;;;;;11.98;nan;99102.81;5062374;28;20887;-69
2023/04/14 08:36:19;;;;;;;17.27;8.48;;;;;;;11.98;nan;99133.69;5064419;28;20047;-67
2023/04/14 08:38:45;;;;;;;13.40;8.02;;;;;;;11.98;nan;99129.19;5066778;28;20020;-69
2023/04/14 08:41:13;;;;;;;9.52;6.72;;;;;;;12.06;nan;99130.50;5053408;28;20075;-69
2023/04/14 08:43:39;;;;;;;11.87;6.57;;;;;;;12.08;nan;99123.09;5065612;28;20030;-68
2023/04/14 08:46:07;;;;;;;17.70;10.15;;;;;;;12.13;nan;99138.94;5066824;28;20390;-69
2023/04/14 08:48:35;;;;;;;13.90;6.68;;;;;;;12.17;nan;99149.75;5060654;28;20029;-70
2023/04/14 08:51:31;;;;;;;13.02;6.55;;;;;;;12.19;nan;99145.78;5070277;28;20118;-69
2023/04/14 08:53:57;;;;;;;14.18;6.38;;;;;;;11.89;nan;99112.31;5066607;28;21280;-69
2023/04/14 08:56:26;;;;;;;15.60;6.70;;;;;;;12.05;nan;99139.47;5057085;28;20080;-67
2023/04/14 08:58:52;;;;;;;12.05;6.80;;;;;;;12.09;nan;99149.25;5062254;28;20063;-68
2023/04/14 09:01:18;;;;;;;13.30;7.10;;;;;;;12.15;nan;99130.75;5058605;28;20127;-68
2023/04/14 09:03:43;;;;;;;14.15;6.78;;;;;;;12.11;nan;99118.09;5061390;28;20025;-69
2023/04/14 09:06:09;;;;;;;10.70;6.38;;;;;;;12.01;nan;99133.94;5048729;28;20036;-69
2023/04/14 09:08:35;;;;;;;9.98;6.65;;;;;;;11.95;nan;99127.09;5047440;28;20063;-69
2023/04/14 09:11:01;;;;;;;13.90;6.85;;;;;;;12.08;nan;99142.38;5047389;28;20108;-69
2023/04/14 09:13:28;;;;;;;12.13;7.05;;;;;;;12.00;nan;99127.06;5048299;28;20398;-69
2023/04/14 09:15:54;;;;;;;11.18;7.85;;;;;;;12.15;nan;99152.66;5064135;28;20466;-68
2023/04/14 09:18:20;;;;;;;12.32;7.38;;;;;;;12.14;nan;99151.09;5067045;28;20037;-68
2023/04/14 09:20:49;;;;;;;12.07;6.90;;;;;;;12.10;nan;99147.38;5047312;28;20029;-68
2023/04/14 09:23:14;;;;;;;10.05;6.53;;;;;;;12.14;nan;99164.28;5062228;28;20028;-68
2023/04/14 09:25:41;;;;;;;10.73;6.57;;;;;;;12.13;nan;99167.97;5067010;28;20027;-68
2023/04/14 09:28:07;;;;;;;11.18;6.40;;;;;;;12.05;nan;99171.94;5067383;28;20086;-68
2023/04/14 09:30:33;;;;;;;13.13;6.45;;;;;;;12.07;nan;99175.09;5062720;28;20024;-68
2023/04/14 09:33:02;;;;;;;15.73;7.55;;;;;;;12.03;nan;99174.03;5066653;28;20125;-68
2023/04/14 09:35:50;;;;;;;10.73;5.93;;;;;;;11.97;nan;99172.47;5039805;28;20032;-68
2023/04/14 09:38:33;;;;;;;13.00;5.88;;;;;;;11.93;nan;99183.81;5064377;28;20837;-69
2023/04/14 09:41:00;;;;;;;8.65;5.85;;;;;;;11.91;nan;99205.16;5062883;28;20569;-68
2023/04/14 09:43:26;;;;;;;8.07;5.20;;;;;;;11.76;nan;99200.63;5049596;28;20044;-68
2023/04/14 09:45:53;;;;;;;7.68;5.53;;;;;;;11.82;nan;99215.41;5037753;28;20035;-69
2023/04/14 09:48:20;;;;;;;10.75;5.18;;;;;;;11.79;nan;99215.94;5065144;28;20115;-68
2023/04/14 09:51:08;;;;;;;9.43;4.85;;;;;;;11.70;nan;99212.22;5059158;28;20040;-69
2023/04/14 09:53:39;;;;;;;11.77;5.07;;;;;;;11.70;nan;99222.75;5043466;28;20754;-69
2023/04/14 09:56:06;;;;;;;8.20;4.75;;;;;;;11.69;nan;99231.75;5041417;28;20068;-69
2023/04/14 09:58:43;;;;;;;10.23;4.90;;;;;;;11.61;nan;99243.59;5054906;28;20500;-68
2023/04/14 10:01:16;;;;;;;10.55;4.95;;;;;;;11.62;nan;99263.63;5043201;28;20036;-68
2023/04/14 10:03:44;;;;;;;11.65;5.10;;;;;;;11.52;nan;99257.50;5063663;28;20032;-69
2023/04/14 10:06:21;;;;;;;6.75;4.60;;;;;;;11.44;nan;99253.53;5063016;28;20032;-70
2023/04/14 10:08:51;;;;;;;7.63;4.93;;;;;;;11.49;nan;99282.56;5062068;28;20032;-69
2023/04/14 10:11:22;;;;;;;9.68;4.80;;;;;;;11.45;nan;99278.88;5069548;28;20044;-69
2023/04/14 10:14:00;;;;;;;8.73;5.00;;;;;;;11.39;nan;99283.31;5065360;28;20039;-69
2023/04/14 10:16:26;;;;;;;9.25;4.78;;;;;;;11.33;nan;99288.84;5066467;28;20036;-68
2023/04/14 10:18:53;;;;;;;8.35;4.95;;;;;;;11.27;nan;99283.50;5051185;28;20028;-71
2023/04/14 10:21:23;;;;;;;7.57;4.80;;;;;;;11.19;nan;99278.75;5055053;28;20020;-69
2023/04/14 10:23:49;;;;;;;8.18;5.10;;;;;;;11.15;nan;99275.03;5059704;28;20040;-68
2023/04/14 10:26:16;;;;;;;10.00;5.80;;;;;;;11.10;nan;99280.28;5040224;28;20029;-69
2023/04/14 10:28:44;;;;;;;10.00;5.95;;;;;;;10.99;nan;99281.25;5062036;28;20490;-69
2023/04/14 10:31:53;;;;;;;9.45;5.82;;;;;;;11.01;nan;99298.41;5047404;28;20097;-69
2023/04/14 10:34:22;;;;;;;11.85;5.80;;;;;;;10.90;nan;99286.22;5053880;28;20143;-68
2023/04/14 10:36:48;;;;;;;10.35;6.45;;;;;;;10.92;nan;99299.13;5066417;28;20017;-69
2023/04/14 10:39:20;;;;;;;8.77;5.55;;;;;;;10.68;nan;99259.22;5039000;28;20624;-68
2023/04/14 10:41:46;;;;;;;11.05;6.35;;;;;;;10.89;nan;99297.00;5058732;28;20036;-68
2023/04/14 10:44:32;;;;;;;12.55;6.93;;;;;;;10.91;nan;99313.34;5064096;28;20047;-68
2023/04/14 10:47:00;;;;;;;10.10;5.95;;;;;;;10.66;nan;99279.75;5055199;28;20075;-67
2023/04/14 10:49:34;;;;;;;9.80;5.53;;;;;;;10.86;nan;99325.44;5058935;28;20033;-69
2023/04/14 10:52:12;;;;;;;9.93;5.82;;;;;;;10.85;nan;99321.22;5042801;28;20021;-68
2023/04/14 10:55:06;;;;;;;5.55;3.72;;;;;;;10.78;nan;99318.00;5067095;28;20047;-68
2023/04/14 10:57:37;;;;;;;3.85;2.90;;;;;;;10.68;nan;99309.22;5047784;28;20410;-68
2023/04/14 11:00:19;;;;;;;5.38;2.97;;;;;;;10.70;nan;99329.00;5059249;28;20051;-69
2023/04/14 11:03:02;;;;;;;5.63;3.00;;;;;;;10.60;nan;99313.13;5041538;28;20497;-67
2023/04/14 11:05:27;;;;;;;3.80;2.60;;;;;;;10.54;nan;99322.03;5053241;28;20397;-68
2023/04/14 11:07:55;;;;;;;3.35;2.30;;;;;;;10.52;nan;99306.50;5053118;28;20056;-70
2023/04/14 11:10:23;;;;;;;4.13;2.60;;;;;;;10.50;nan;99321.75;5058630;28;20105;-68
2023/04/14 11:12:54;;;;;;;3.92;2.30;;;;;;;10.50;nan;99326.22;5046719;28;20028;-68
2023/04/14 11:15:19;;;;;;;3.60;2.28;;;;;;;10.42;nan;99323.00;5061591;28;20033;-67
2023/04/14 11:17:44;;;;;;;4.15;2.50;;;;;;;10.37;nan;99335.31;5060396;28;20529;-68
2023/04/14 11:20:21;;;;;;;3.63;2.50;;;;;;;10.40;nan;99351.41;5068810;28;20028;-67
2023/04/14 11:22:49;;;;;;;4.50;2.08;;;;;;;10.35;nan;99364.50;5069441;28;20029;-71
2023/04/14 11:25:18;;;;;;;3.10;2.50;;;;;;;10.32;nan;99372.91;5065561;28;20440;-68
2023/04/14 11:27:45;;;;;;;2.83;1.95;;;;;;;10.31;nan;99373.16;5055791;28;20028;-68
2023/04/14 11:30:20;;;;;;;3.83;1.83;;;;;;;10.26;nan;99373.84;5063552;28;20398;-69
2023/04/14 11:32:53;;;;;;;3.53;2.03;;;;;;;10.24;nan;99373.31;5065300;28;20054;-69
2023/04/14 11:35:23;;;;;;;3.10;2.00;;;;;;;10.20;nan;99361.72;5058062;28;20029;-68
2023/04/14 11:37:55;;;;;;;2.78;2.10;;;;;;;10.22;nan;99360.41;5066186;28;20039;-69
2023/04/14 11:40:20;;;;;;;4.82;1.92;;;;;;;10.15;nan;99369.53;5066272;28;20390;-70
2023/04/14 11:42:51;;;;;;;2.97;1.98;;;;;;;10.19;nan;99387.19;5044834;28;20032;-69
2023/04/14 11:45:17;;;;;;;3.20;1.92;;;;;;;10.18;nan;99377.72;5057380;28;20029;-67
2023/04/14 11:47:48;;;;;;;2.25;1.95;;;;;;;10.16;nan;99381.66;5060111;28;20043;-69
2023/04/14 11:50:15;;;;;;;3.28;2.00;;;;;;;10.05;nan;99377.31;5059054;28;20031;-68
2023/04/14 11:52:47;;;;;;;3.20;2.20;;;;;;;10.00;nan;99384.09;5067141;28;20025;-66
2023/04/14 11:55:13;;;;;;;3.42;2.33;;;;;;;10.06;nan;99395.50;5065642;28;20017;-67
2023/04/14 11:57:43;;;;;;;3.92;2.70;;;;;;;10.13;nan;99409.25;5063270;28;20121;-68
2023/04/14 12:00:10;;;;;;;;;;;;;;;10.12;nan;99406.84;5068133;28;20033;-69
2023/04/14 12:02:36;;;;;;;4.57;2.42;;;;;;;10.09;nan;99409.97;5060999;28;20386;-69
2023/04/14 12:05:02;;;;;;;5.28;3.10;;;;;;;10.06;nan;99407.84;5045479;28;20046;-69
2023/04/14 12:07:29;;;;;;;5.80;2.83;;;;;;;10.02;nan;99418.06;5060723;28;20471;-68
2023/04/14 12:09:54;;;;;;;6.68;2.90;;;;;;;10.04;nan;99413.34;5057840;28;20029;-70
2023/04/14 12:12:19;;;;;;;6.10;3.00;;;;;;;10.04;nan;99420.44;5064865;28;20060;-68
2023/04/14 12:14:47;;;;;;;6.55;3.10;;;;;;;10.06;nan;99426.25;5058560;28;20031;-68